Latest Weather Observations for Argyle

IDW60801

Issued at 7:03 pm WST Friday 24 November 2017 (issued every 30 minutes, with the page automatically refreshed every 10 minutes)

About weather observations | Map of weather stations | Latest weather observations for WA | Other Formats
Station Details ID: 002064 Name: ARGYLE AERODROME Lat: -16.64 Lon: 128.45 Height: 164.0 m
Data from the previous 72 hours. | See also: Recent months at Argyle
Date/Time
WST
Temp
°C
App
Temp
°C
Dew
Point
°C
Rel
Hum
%
Delta-T
°C
Wind Press
QNH
hPa
Press
MSL
hPa
Rain since
9am
mm
Dir  Spd
km/h
Gust
km/h
Spd
kts
Gust
kts
24/06:30pm 32.4 34.1 20.1 48 8.2 NNE 11 13 6 7 1006.8 - 0.0
24/06:00pm 32.8 34.2 19.5 45 8.8 NE 11 17 6 9 1006.5 1005.1 0.0
24/05:30pm 33.4 34.6 19.8 44 9.1 NNE 13 17 7 9 1006.2 - 0.0
24/05:00pm 34.1 35.1 19.5 42 9.7 NNE 13 17 7 9 1006.1 - 0.0
24/04:30pm 35.2 35.6 18.9 38 10.8 NNE 15 20 8 11 1005.7 - 0.0
24/04:00pm 35.9 36.6 18.9 36 11.3 NNE 13 20 7 11 1005.5 - 0.0
24/03:30pm 36.8 37.4 16.7 30 13.0 NE 9 13 5 7 1005.6 - 0.0
24/03:00pm 36.8 36.7 16.0 29 13.3 N 11 17 6 9 1005.6 1004.2 0.0
24/02:30pm 36.3 36.1 15.7 29 13.1 N 11 19 6 10 1005.8 - 0.0
24/02:00pm 36.2 36.5 16.9 32 12.5 N 11 19 6 10 1006.3 - 0.0
24/01:30pm 36.3 36.8 17.4 32 12.3 N 11 15 6 8 1006.5 - 0.0
24/01:00pm 35.6 37.0 17.9 35 11.6 NNE 7 15 4 8 1007.0 - 0.0
24/12:30pm 35.6 35.7 17.5 34 11.8 NNE 13 19 7 10 1007.4 - 0.0
24/12:00pm 34.6 35.7 17.9 37 10.9 N 9 15 5 8 1007.9 1006.5 0.0
24/11:30am 33.7 35.4 18.4 40 10.0 SW 7 13 4 7 1008.4 - 0.0
24/11:00am 33.5 35.4 18.6 41 9.8 SSW 6 15 3 8 1009.0 - 0.0
24/10:30am 32.6 34.2 18.3 42 9.3 NW 7 13 4 7 1009.5 - 0.0
24/10:00am 32.3 33.9 18.3 43 9.1 ENE 7 13 4 7 1009.9 - 0.0
24/09:30am 31.4 34.1 18.7 46 8.3 ESE 2 9 1 5 1010.2 - 0.0
24/09:00am 30.9 32.4 19.0 49 7.8 SE 9 13 5 7 1010.9 1009.5 12.2
24/08:30am 30.4 32.2 18.4 48 7.8 S 6 11 3 6 1011.2 - 12.2
24/08:00am 30.2 32.0 18.7 50 7.5 SW 7 11 4 6 1010.9 - 12.2
24/07:30am 29.1 30.0 18.4 52 6.9 S 11 15 6 8 1010.8 - 12.2
24/07:00am 28.7 29.8 18.8 55 6.4 S 11 19 6 10 1010.3 - 12.2
24/06:30am 28.0 29.7 20.1 62 5.2 S 11 17 6 9 1009.8 - 12.2
24/06:00am 26.9 29.2 20.7 69 4.1 S 9 13 5 7 1008.7 1007.3 12.2
24/05:30am 25.2 28.6 21.6 80 2.4 SE 6 9 3 5 1008.1 - 12.2
24/05:00am 24.7 28.2 21.9 84 1.9 SSE 6 9 3 5 1007.1 - 12.2
24/04:30am 25.5 28.7 21.3 77 2.8 SSW 6 7 3 4 1006.2 - 12.2
24/04:00am 25.9 28.6 20.3 71 3.7 SW 6 9 3 5 1005.7 - 12.2
24/03:30am 26.1 29.0 20.7 72 3.6 W 6 7 3 4 1005.6 - 12.2
24/03:00am 25.7 28.2 21.0 75 3.1 SW 9 15 5 8 1005.5 1004.1 12.2
24/02:30am 26.1 26.7 20.3 70 3.8 NNW 17 22 9 12 1005.0 - 12.2
24/02:00am 26.9 25.8 19.4 63 4.9 NNW 24 32 13 17 1005.2 - 12.2
24/01:30am 26.3 26.1 21.2 73 3.4 N 24 37 13 20 1005.1 - 12.0
24/01:00am 26.4 27.3 21.6 75 3.2 N 19 24 10 13 1006.0 - 11.8
24/12:30am 25.7 25.0 21.0 75 3.1 NW 26 32 14 17 1005.6 - 11.8
24/12:00am 25.2 25.2 21.6 80 2.4 NW 24 33 13 18 1007.2 1005.8 11.8
 
Date/Time
WST
Temp
°C
App
Temp
°C
Dew
Point
°C
Rel
Hum
%
Delta-T
°C
Wind Press
QNH
hPa
Press
MSL
hPa
Rain since
9am
mm
Dir  Spd
km/h
Gust
km/h
Spd
kts
Gust
kts
23/11:30pm 27.0 27.0 21.0 69 4.0 WNW 22 32 12 17 1007.9 - 11.0
23/11:00pm 26.6 25.7 21.4 73 3.5 W 28 41 15 22 1008.4 - 11.0
23/10:30pm 26.4 24.6 21.1 72 3.5 WSW 32 52 17 28 1009.4 - 11.0
23/10:23pm 25.7 24.8 21.4 77 2.9 WSW 28 50 15 27 1009.6 - 11.0
23/10:00pm 24.9 26.6 22.4 86 1.7 NW 17 24 9 13 1008.9 - 11.0
23/09:30pm 24.2 26.0 22.6 91 1.1 NNE 17 22 9 12 1008.7 - 11.0
23/09:24pm 24.2 25.4 22.1 88 1.4 NNE 19 22 10 12 1008.9 - 10.8
23/09:17pm 24.6 26.6 23.0 91 1.1 ENE 17 20 9 11 1009.2 - 10.4
23/09:00pm 24.3 26.5 23.3 94 0.7 E 17 24 9 13 1009.5 1008.1 9.8
23/08:52pm 24.8 27.0 23.3 91 1.0 E 17 33 9 18 1009.4 - 8.2
23/08:34pm 28.0 31.2 22.3 71 3.9 NE 9 17 5 9 1009.4 - 2.6
23/08:30pm 28.9 31.9 22.0 66 4.7 ENE 9 20 5 11 1009.1 - 0.6
23/08:00pm 30.4 30.0 20.9 57 6.4 ENE 24 41 13 22 1007.8 - 0.0
23/07:30pm 30.7 31.8 21.2 57 6.4 NNE 17 24 9 13 1006.7 - 0.0
23/07:00pm 31.5 33.1 21.5 55 6.8 NNE 15 24 8 13 1005.5 - 0.0
23/06:30pm 32.2 34.1 21.3 52 7.4 N 13 17 7 9 1004.6 - 0.0
23/06:00pm 32.2 31.6 21.3 52 7.4 NNE 26 44 14 24 1003.7 - 0.0
23/05:30pm 32.4 32.2 22.1 54 7.1 NE 26 35 14 19 1003.2 - 0.0
23/05:00pm 35.7 37.6 21.4 43 9.8 NE 13 20 7 11 1002.6 - 0.0
23/04:30pm 37.5 38.1 17.7 31 13.0 N 11 15 6 8 1002.3 - 0.0
23/04:00pm 38.4 39.6 17.4 29 13.7 NNE 7 13 4 7 1002.4 - 0.0
23/03:30pm 38.6 40.1 18.1 30 13.5 NNE 7 15 4 8 1002.5 - 0.0
23/02:30pm 38.1 38.9 17.3 29 13.6 WNW 9 17 5 9 1002.8 - 0.0
23/01:30pm 38.1 38.7 18.6 32 12.9 NW 13 24 7 13 1003.6 - 0.0
23/12:30pm 37.3 37.0 19.2 34 12.1 W 19 22 10 12 1004.5 - 0.0
23/12:00pm 36.6 38.8 19.6 37 11.4 SE 7 20 4 11 1005.2 1003.8 0.0
23/11:30am 35.7 37.8 20.9 42 10.1 SW 11 20 6 11 1005.8 - 0.0
23/11:00am 35.3 37.0 20.9 43 9.8 W 13 28 7 15 1006.6 - 0.0
23/10:30am 34.6 35.5 20.9 44 9.3 SW 17 22 9 12 1007.2 - 0.0
23/09:30am 34.0 36.8 21.6 48 8.5 W 9 20 5 11 1007.9 - 0.0
23/09:00am 32.7 35.1 21.5 51 7.6 W 11 17 6 9 1008.1 - 0.0
23/08:30am 32.3 35.6 22.6 56 6.7 W 9 17 5 9 1008.5 - 0.0
23/08:00am 31.5 34.8 22.5 59 6.2 NW 9 15 5 8 1008.5 - 0.0
23/07:30am 30.4 34.4 23.8 68 4.6 N 9 15 5 8 1008.6 - 0.0
23/07:00am 29.5 33.5 23.7 71 4.0 NW 9 13 5 7 1008.5 - 0.0
23/06:00am 28.2 32.7 24.6 81 2.5 N 9 13 5 7 1007.6 - 0.0
23/04:30am 26.6 31.4 24.2 87 1.7 W 6 9 3 5 1006.2 - 0.0
23/04:00am 26.9 30.3 24.0 84 2.0 N 13 15 7 8 1005.7 - 0.0
23/03:30am 26.8 31.2 23.8 83 2.1 NW 7 11 4 6 1005.3 - -
23/03:00am 26.6 30.9 23.6 83 2.1 W 7 9 4 5 1004.9 - 0.0
23/02:30am 26.7 31.1 23.4 82 2.3 W 6 9 3 5 1004.6 - 0.0
23/02:00am 26.5 30.1 23.0 81 2.4 NW 9 11 5 6 1004.4 - 0.0
23/12:30am 27.0 29.5 21.8 73 3.5 NNW 11 13 6 7 1005.1 - 0.0
23/12:00am 27.6 29.3 21.7 70 4.0 N 15 19 8 10 1005.5 1004.1 0.0
 
Date/Time
WST
Temp
°C
App
Temp
°C
Dew
Point
°C
Rel
Hum
%
Delta-T
°C
Wind Press
QNH
hPa
Press
MSL
hPa
Rain since
9am
mm
Dir  Spd
km/h
Gust
km/h
Spd
kts
Gust
kts
22/11:30pm 27.9 29.9 21.5 68 4.3 N 13 19 7 10 1005.8 - 0.0
22/11:00pm 27.4 30.5 22.1 73 3.6 NW 9 11 5 6 1006.2 - 0.0
22/10:00pm 27.7 30.2 21.8 70 4.0 NW 11 13 6 7 1006.8 - 0.0
22/09:30pm 28.0 30.8 21.6 68 4.3 NW 9 11 5 6 1006.8 - 0.0
22/09:00pm 27.8 30.4 21.9 70 4.0 NW 11 13 6 7 1006.6 1005.2 0.0
22/08:30pm 28.2 30.4 21.8 68 4.3 N 13 17 7 9 1006.2 - 0.0
22/08:00pm 28.5 29.8 21.7 66 4.6 N 17 20 9 11 1005.8 - 0.0
22/07:30pm 28.4 30.9 22.5 70 4.0 N 13 17 7 9 1005.6 - 0.0
22/07:00pm 28.8 31.3 22.4 68 4.4 N 13 15 7 8 1005.4 - 0.0
22/06:30pm 29.4 31.7 22.1 65 5.0 N 13 17 7 9 1005.0 - 0.0
22/06:00pm 29.7 33.2 22.9 67 4.7 N 9 13 5 7 1004.8 1003.4 0.0
22/05:30pm 30.3 33.6 23.2 65 4.9 N 11 15 6 8 1004.5 - 0.0
22/05:00pm 31.3 34.0 22.8 60 5.9 N 13 17 7 9 1004.1 - 0.0
22/04:30pm 31.9 33.9 21.6 54 7.0 NNE 13 19 7 10 1003.7 - 0.0
22/04:00pm 32.3 34.3 21.6 53 7.3 NNE 13 17 7 9 1003.6 - 0.0
22/03:30pm 31.9 33.5 20.8 51 7.5 N 13 19 7 10 1003.6 - 0.0
22/03:00pm 31.7 33.4 20.9 52 7.3 NNE 13 17 7 9 1003.7 1002.3 0.0
22/02:30pm 31.9 33.7 21.1 52 7.3 N 13 19 7 10 1003.8 - 0.0
22/02:00pm 32.8 34.5 18.6 43 9.3 SSW 7 9 4 5 1004.3 - 0.0
22/01:30pm 32.8 35.3 19.9 46 8.6 ESE 6 9 3 5 1004.6 - 0.0
22/01:00pm 31.8 33.6 19.6 48 8.1 ESE 9 13 5 7 1005.0 - 0.0
22/12:30pm 31.3 33.9 20.0 51 7.5 SSE 6 11 3 6 1005.1 - 0.0
22/12:00pm 29.9 31.7 20.3 56 6.4 SSE 11 19 6 10 1005.4 1004.0 0.0
22/11:30am 29.5 31.2 20.2 57 6.2 SSE 11 17 6 9 1005.8 - 0.0
22/11:00am 29.4 31.0 20.7 59 5.8 WSW 13 17 7 9 1005.8 - 0.0
22/10:30am 27.3 30.6 21.8 72 3.7 S 7 11 4 6 1006.7 - 0.0
22/10:00am 26.7 27.6 20.8 70 3.9 SSW 17 22 9 12 1007.3 - 0.0
22/09:00am 24.9 25.5 21.0 79 2.6 W 19 28 10 15 1008.6 1007.2 12.8
22/08:30am 24.4 25.6 21.5 84 1.9 WSW 17 32 9 17 1009.1 - 12.4
22/08:18am 24.8 23.6 20.9 79 2.6 WSW 28 32 15 17 1009.3 - 12.4
22/08:00am 24.9 28.3 22.7 87 1.5 SW 9 13 5 7 1009.0 - 11.8
22/07:30am 24.6 27.8 23.0 91 1.1 SW 11 17 6 9 1008.8 - 11.6
22/07:00am 24.2 27.0 21.5 85 1.8 W 9 15 5 8 1009.1 - 11.6
22/06:30am 23.3 24.8 22.0 92 0.9 W 17 20 9 11 1009.3 - 11.6
22/06:00am 22.6 23.5 21.5 93 0.7 NW 19 22 10 12 1009.1 - 11.6
22/05:30am 22.5 25.0 21.7 95 0.5 NNW 11 13 6 7 1009.6 - 11.2
22/04:45am 22.6 24.1 22.0 96 0.4 N 17 20 9 11 1009.5 - 10.4
22/04:30am 22.8 26.3 21.9 95 0.6 NE 6 15 3 8 1009.9 - 10.0
22/04:21am 22.6 26.2 22.0 96 0.4 SE 6 15 3 8 1010.2 - 8.6
22/04:00am 22.6 26.0 22.0 96 0.4 E 7 9 4 5 1010.3 - 7.6
22/03:36am 22.5 25.7 21.7 95 0.5 ENE 7 11 4 6 1009.3 - 6.8
22/03:35am 22.4 25.7 21.8 96 0.4 ENE 7 13 4 7 1009.3 - 6.8
22/03:30am 22.3 24.8 21.7 96 0.4 E 11 19 6 10 1009.1 - 6.6
22/03:24am 22.1 23.5 21.8 98 0.2 E 17 28 9 15 1008.9 - 6.2
22/03:20am 22.0 22.8 21.7 98 0.2 E 20 32 11 17 1008.8 - 6.0
22/03:00am 22.2 21.6 21.9 98 0.2 SE 28 43 15 23 1008.4 1007.0 2.6
22/02:56am 22.2 20.8 21.9 98 0.2 SE 32 46 17 25 1008.4 - 2.4
22/02:42am 22.7 21.8 22.1 96 0.4 SE 30 46 16 25 1008.4 - 1.6
22/02:30am 24.9 23.2 22.4 86 1.7 ESE 35 54 19 29 1008.4 - 0.4
22/02:19am 25.9 25.3 22.7 82 2.2 SE 30 48 16 26 1007.9 - 0.4
22/02:00am 27.7 28.9 23.2 76 3.1 ESE 22 33 12 18 1007.7 - 0.4
22/01:00am 28.2 31.4 22.3 70 4.0 NNE 9 13 5 7 1005.6 - 0.4
22/12:30am 28.9 31.5 22.0 66 4.7 N 11 19 6 10 1006.2 - 0.4
22/12:00am 29.1 30.8 21.7 64 5.0 NNW 15 17 8 9 1005.7 1004.3 0.4
 
Date/Time
WST
Temp
°C
App
Temp
°C
Dew
Point
°C
Rel
Hum
%
Delta-T
°C
Wind Press
QNH
hPa
Press
MSL
hPa
Rain since
9am
mm
Dir  Spd
km/h
Gust
km/h
Spd
kts
Gust
kts
21/11:30pm 29.5 31.0 21.3 61 5.5 N 15 20 8 11 1006.1 - 0.4
21/11:00pm 29.9 30.4 21.1 59 5.9 N 20 32 11 17 1006.6 - 0.4
21/10:00pm 30.3 31.3 22.1 61 5.6 N 20 26 11 14 1007.1 - 0.4
21/09:00pm 30.3 33.5 23.7 68 4.6 N 13 19 7 10 1007.2 1005.8 0.4
21/08:30pm 30.6 34.1 22.8 63 5.4 NNW 9 11 5 6 1006.9 - 0.4
21/08:00pm 30.4 34.2 23.5 66 4.8 NW 9 11 5 6 1006.6 - 0.4
21/07:30pm 30.5 34.0 23.6 66 4.8 NNW 11 13 6 7 1006.5 - 0.4

Other Formats:

Comma delimited format used in spreadsheet applications
http://www.bom.gov.au/fwo/IDW60801/IDW60801.94217.axf

JavaScript Object Notation format (JSON) in row-major order
http://www.bom.gov.au/fwo/IDW60801/IDW60801.94217.json